createdAt,value
2024-02-26T00:00:34.858Z,51.85
2024-02-26T00:01:34.776Z,52.85
2024-02-26T00:02:34.809Z,53.28
2024-02-26T00:03:34.904Z,51.09
2024-02-26T00:04:34.845Z,51.47
2024-02-26T00:05:34.907Z,51.13
2024-02-26T00:06:34.936Z,52.65
2024-02-26T00:07:34.907Z,52.71
2024-02-26T00:08:34.928Z,52.09
2024-02-26T00:09:34.943Z,53.49
2024-02-26T00:10:34.969Z,52.11
2024-02-26T00:11:35.043Z,52.08
2024-02-26T00:12:35.014Z,52.37
2024-02-26T00:13:35.071Z,52.22
2024-02-26T00:14:35.081Z,52.70
2024-02-26T00:15:35.101Z,50.90
2024-02-26T00:16:35.109Z,52.84
2024-02-26T00:17:35.178Z,51.78
2024-02-26T00:18:35.303Z,51.42
2024-02-26T00:19:35.270Z,51.69
2024-02-26T00:20:35.241Z,50.32
2024-02-26T00:21:35.267Z,52.23
2024-02-26T00:22:35.278Z,51.18
2024-02-26T00:23:35.310Z,52.01
2024-02-26T00:24:35.315Z,53.30
2024-02-26T00:25:35.382Z,53.56
2024-02-26T00:26:35.359Z,51.63
2024-02-26T00:27:35.393Z,52.28
2024-02-26T00:28:35.428Z,52.13
2024-02-26T00:29:35.436Z,51.06
2024-02-26T00:30:35.526Z,51.17
2024-02-26T00:31:35.497Z,51.25
2024-02-26T00:32:35.542Z,50.81
2024-02-26T00:33:35.762Z,52.47
2024-02-26T00:34:35.599Z,53.28
2024-02-26T00:35:35.573Z,51.72
2024-02-26T00:36:35.608Z,52.44
2024-02-26T00:37:35.607Z,50.00
2024-02-26T00:38:35.628Z,50.67
2024-02-26T00:39:35.649Z,52.77
2024-02-26T00:40:35.718Z,51.86
2024-02-26T00:41:35.727Z,53.07
2024-02-26T00:42:35.754Z,51.09
2024-02-26T00:43:35.757Z,51.62
2024-02-26T00:44:35.787Z,52.65
2024-02-26T00:45:35.815Z,53.48
2024-02-26T00:46:35.835Z,52.46
2024-02-26T00:47:35.909Z,53.39
2024-02-26T00:48:35.985Z,53.55
2024-02-26T00:49:35.955Z,54.10
2024-02-26T00:50:35.963Z,52.55
2024-02-26T00:51:36.010Z,52.93
2024-02-26T00:52:35.982Z,54.12
2024-02-26T00:53:36.022Z,52.33
2024-02-26T00:54:36.035Z,53.29
2024-02-26T00:55:36.102Z,53.94
2024-02-26T00:56:36.094Z,52.49
2024-02-26T00:57:36.128Z,53.21
2024-02-26T00:58:36.167Z,53.71
2024-02-26T00:59:36.167Z,50.89
2024-02-26T01:00:36.196Z,51.71
2024-02-26T01:01:36.202Z,53.63
2024-02-26T01:02:36.252Z,51.52
2024-02-26T01:03:36.298Z,54.44
2024-02-26T01:04:36.294Z,51.49
2024-02-26T01:05:36.286Z,53.12
2024-02-26T01:06:36.401Z,51.80
2024-02-26T01:07:36.454Z,53.21
2024-02-26T01:08:36.380Z,54.02
2024-02-26T01:09:36.386Z,51.99
2024-02-26T01:10:36.432Z,52.74
2024-02-26T01:11:36.496Z,52.32
2024-02-26T01:12:36.462Z,53.54
2024-02-26T01:13:36.503Z,51.23
2024-02-26T01:14:36.523Z,52.59
2024-02-26T01:15:36.536Z,51.12
2024-02-26T01:16:36.591Z,51.79
2024-02-26T01:17:36.667Z,51.42
2024-02-26T01:18:36.745Z,51.90
2024-02-26T01:19:36.675Z,52.64
2024-02-26T01:20:36.642Z,52.37
2024-02-26T01:21:36.689Z,52.77
2024-02-26T01:22:36.684Z,51.47
2024-02-26T01:23:36.728Z,53.53
2024-02-26T01:24:36.729Z,52.77
2024-02-26T01:25:36.763Z,52.00
2024-02-26T01:26:36.761Z,51.05
2024-02-26T01:27:36.794Z,52.99
2024-02-26T01:28:36.842Z,52.54
2024-02-26T01:29:36.852Z,51.98
2024-02-26T01:30:36.899Z,51.37
2024-02-26T01:31:36.917Z,51.93
2024-02-26T01:32:36.965Z,51.95
2024-02-26T01:33:37.099Z,54.03
2024-02-26T01:34:37.014Z,50.84
2024-02-26T01:35:37.005Z,52.20
2024-02-26T01:36:37.010Z,51.79
2024-02-26T01:37:37.023Z,51.32
2024-02-26T01:38:37.056Z,52.38
2024-02-26T01:39:37.082Z,52.63
2024-02-26T01:40:37.092Z,52.24
2024-02-26T01:41:37.114Z,52.15
2024-02-26T01:42:37.136Z,52.73
2024-02-26T01:43:37.161Z,53.48
2024-02-26T01:44:37.186Z,52.20
2024-02-26T01:45:37.216Z,51.93
2024-02-26T01:46:37.223Z,50.66
2024-02-26T01:47:37.251Z,52.33
2024-02-26T01:48:37.385Z,51.66
2024-02-26T01:49:37.371Z,52.90
2024-02-26T01:50:37.317Z,53.20
2024-02-26T01:51:37.387Z,52.57
2024-02-26T01:52:37.383Z,51.30
2024-02-26T01:53:37.396Z,52.79
2024-02-26T01:54:37.431Z,52.64
2024-02-26T01:55:37.446Z,52.18
2024-02-26T01:56:37.471Z,50.12
2024-02-26T01:57:37.522Z,51.96
2024-02-26T01:58:37.544Z,53.82
2024-02-26T01:59:37.565Z,53.02
2024-02-26T02:00:37.661Z,52.02
2024-02-26T02:01:37.572Z,51.81
2024-02-26T02:02:37.609Z,51.93
2024-02-26T02:03:37.726Z,53.34
2024-02-26T02:04:37.650Z,52.14
2024-02-26T02:05:37.685Z,50.84
2024-02-26T02:06:37.764Z,51.71
2024-02-26T02:07:37.733Z,51.26
2024-02-26T02:08:37.760Z,52.48
2024-02-26T02:09:37.769Z,51.43
2024-02-26T02:10:37.818Z,53.13
2024-02-26T02:11:37.840Z,53.39
2024-02-26T02:12:37.872Z,50.80
2024-02-26T02:13:37.885Z,50.92
2024-02-26T02:14:37.900Z,52.51
2024-02-26T02:15:37.969Z,52.55
2024-02-26T02:16:37.963Z,52.01
2024-02-26T02:17:38.042Z,51.63
2024-02-26T02:18:38.068Z,50.33
2024-02-26T02:19:38.129Z,50.62
2024-02-26T02:20:38.062Z,51.84
2024-02-26T02:21:38.098Z,51.70
2024-02-26T02:22:38.114Z,51.53
2024-02-26T02:23:38.165Z,52.89
2024-02-26T02:24:38.362Z,51.97
2024-02-26T02:25:38.237Z,50.75
2024-02-26T02:26:38.215Z,53.37
2024-02-26T02:27:38.321Z,51.07
2024-02-26T02:28:38.292Z,52.03
2024-02-26T02:29:38.282Z,52.51
2024-02-26T02:30:38.321Z,53.73
2024-02-26T02:31:38.407Z,51.62
2024-02-26T02:32:38.371Z,53.59
2024-02-26T02:33:38.605Z,52.04
2024-02-26T02:34:38.502Z,53.57
2024-02-26T02:35:38.428Z,51.17
2024-02-26T02:36:38.480Z,53.07
2024-02-26T02:37:38.488Z,51.97
2024-02-26T02:38:38.512Z,51.25
2024-02-26T02:39:38.524Z,52.64
2024-02-26T02:40:38.561Z,52.00
2024-02-26T02:41:38.592Z,51.71
2024-02-26T02:42:38.610Z,52.21
2024-02-26T02:43:38.620Z,52.66
2024-02-26T02:44:38.647Z,51.58
2024-02-26T02:45:38.678Z,52.02
2024-02-26T02:46:38.700Z,51.31
2024-02-26T02:47:38.777Z,51.88
2024-02-26T02:48:38.823Z,50.13
2024-02-26T02:49:38.902Z,50.60
2024-02-26T02:50:38.820Z,51.68
2024-02-26T02:51:38.865Z,52.32
2024-02-26T02:52:38.862Z,53.93
2024-02-26T02:53:38.940Z,53.42
2024-02-26T02:54:38.890Z,54.01
2024-02-26T02:55:38.916Z,52.38
2024-02-26T02:56:38.939Z,53.02
2024-02-26T02:57:38.956Z,54.00
2024-02-26T02:58:38.993Z,52.89
2024-02-26T02:59:39.022Z,51.57
2024-02-26T03:00:39.161Z,52.34
2024-02-26T03:01:39.072Z,53.84
2024-02-26T03:02:39.096Z,52.03
2024-02-26T03:03:39.125Z,53.10
2024-02-26T03:04:39.231Z,52.09
2024-02-26T03:05:39.195Z,51.48
2024-02-26T03:06:39.290Z,53.36
2024-02-26T03:07:39.190Z,52.70
2024-02-26T03:08:39.363Z,52.73
2024-02-26T03:09:39.226Z,52.18
2024-02-26T03:10:39.246Z,51.96
2024-02-26T03:11:39.278Z,52.71
2024-02-26T03:12:39.290Z,53.13
2024-02-26T03:13:39.332Z,51.31
2024-02-26T03:14:39.371Z,52.63
2024-02-26T03:15:39.408Z,52.82
2024-02-26T03:16:39.423Z,53.99
2024-02-26T03:17:39.485Z,51.36
2024-02-26T03:18:39.534Z,52.38
2024-02-26T03:19:39.487Z,52.41
2024-02-26T03:20:39.608Z,52.40
2024-02-26T03:21:39.497Z,51.60
2024-02-26T03:22:39.554Z,52.00
2024-02-26T03:23:39.650Z,52.80
2024-02-26T03:24:39.617Z,52.89
2024-02-26T03:25:39.612Z,51.51
2024-02-26T03:26:39.680Z,53.11
2024-02-26T03:27:39.646Z,52.49
2024-02-26T03:28:39.678Z,52.38
2024-02-26T03:29:39.796Z,52.04
2024-02-26T03:30:39.736Z,52.30
2024-02-26T03:31:39.738Z,52.55
2024-02-26T03:32:39.831Z,51.81
2024-02-26T03:33:39.925Z,52.87
2024-02-26T03:34:40.002Z,50.87
2024-02-26T03:35:39.887Z,52.62
2024-02-26T03:36:39.895Z,51.56
2024-02-26T03:37:39.909Z,51.92
2024-02-26T03:38:39.982Z,53.06
2024-02-26T03:39:39.950Z,52.85
2024-02-26T03:40:39.979Z,52.58
2024-02-26T03:41:40.029Z,51.91
2024-02-26T03:42:40.027Z,51.93
2024-02-26T03:43:40.042Z,52.76
2024-02-26T03:44:40.128Z,51.17
2024-02-26T03:45:40.144Z,51.71
2024-02-26T03:46:40.117Z,52.30
2024-02-26T03:47:40.309Z,51.77
2024-02-26T03:48:40.304Z,51.99
2024-02-26T03:49:40.343Z,51.72
2024-02-26T03:50:40.303Z,52.59
2024-02-26T03:51:40.248Z,51.98
2024-02-26T03:52:40.245Z,51.48
2024-02-26T03:53:40.301Z,52.20
2024-02-26T03:54:40.285Z,52.04
2024-02-26T03:55:40.298Z,50.35
2024-02-26T03:56:40.335Z,52.29
2024-02-26T03:57:40.330Z,52.19
2024-02-26T03:58:40.350Z,51.72
2024-02-26T03:59:40.362Z,52.18
2024-02-26T04:00:40.455Z,52.09
2024-02-26T04:01:40.366Z,52.54
2024-02-26T04:02:40.377Z,51.94
2024-02-26T04:03:40.403Z,52.61
2024-02-26T04:04:40.461Z,51.18
2024-02-26T04:05:40.582Z,51.66
2024-02-26T04:06:40.429Z,50.96
2024-02-26T04:07:40.392Z,52.02
2024-02-26T04:08:40.427Z,53.19
2024-02-26T04:09:40.400Z,50.84
2024-02-26T04:10:40.496Z,52.72
2024-02-26T04:11:40.465Z,52.99
2024-02-26T04:12:40.452Z,53.23
2024-02-26T04:13:40.440Z,51.01
2024-02-26T04:14:40.492Z,51.61
2024-02-26T04:15:40.508Z,51.63
2024-02-26T04:16:40.546Z,51.68
2024-02-26T04:17:40.643Z,52.10
2024-02-26T04:18:40.741Z,51.41
2024-02-26T04:19:40.749Z,52.27
2024-02-26T04:20:40.737Z,52.83
2024-02-26T04:21:40.769Z,53.69
2024-02-26T04:22:40.844Z,53.16
2024-02-26T04:23:40.936Z,52.56
2024-02-26T04:24:40.981Z,52.06
2024-02-26T04:25:41.036Z,53.00
2024-02-26T04:26:41.178Z,54.05
2024-02-26T04:27:41.190Z,53.16
2024-02-26T04:28:41.266Z,53.57
2024-02-26T04:29:41.365Z,53.91
2024-02-26T04:30:41.396Z,52.85
2024-02-26T04:31:41.468Z,52.31
2024-02-26T04:32:41.555Z,52.55
2024-02-26T04:33:41.693Z,52.58
2024-02-26T04:34:41.686Z,52.57
2024-02-26T04:35:41.765Z,52.97
2024-02-26T04:36:41.805Z,52.76
2024-02-26T04:37:41.879Z,53.57
2024-02-26T04:38:41.949Z,52.68
2024-02-26T04:39:51.124Z,50.00
2024-02-26T04:40:49.211Z,50.00
2024-02-26T04:41:49.238Z,50.00
2024-02-26T04:42:49.203Z,50.00
2024-02-26T04:43:49.214Z,50.00
2024-02-26T04:44:49.301Z,50.01
2024-02-26T04:45:49.364Z,50.11
2024-02-26T04:46:49.440Z,51.09
2024-02-26T04:47:49.569Z,51.38
2024-02-26T04:48:49.710Z,50.13
2024-02-26T04:49:49.652Z,50.50
2024-02-26T04:50:49.822Z,50.51
2024-02-26T04:51:49.762Z,50.33
2024-02-26T04:52:49.839Z,51.64
2024-02-26T04:53:49.944Z,50.69
2024-02-26T04:54:49.956Z,51.60
2024-02-26T04:55:50.004Z,50.00
2024-02-26T04:56:50.084Z,50.61
2024-02-26T04:57:50.138Z,50.17
2024-02-26T04:58:50.193Z,51.03
2024-02-26T04:59:50.333Z,52.24
2024-02-26T05:00:50.359Z,51.78
2024-02-26T05:01:50.433Z,52.36
2024-02-26T05:02:50.524Z,51.66
2024-02-26T05:03:50.616Z,52.00
2024-02-26T05:04:50.614Z,52.63
2024-02-26T05:05:50.802Z,51.86
2024-02-26T05:06:50.761Z,51.57
2024-02-26T05:07:50.799Z,51.71
2024-02-26T05:08:50.922Z,52.24
2024-02-26T05:09:51.083Z,52.81
2024-02-26T05:10:51.015Z,52.50
2024-02-26T05:11:51.071Z,53.11
2024-02-26T05:12:51.096Z,50.86
2024-02-26T05:13:51.178Z,52.11
2024-02-26T05:14:51.281Z,52.47
2024-02-26T05:15:51.322Z,52.04
2024-02-26T05:16:51.344Z,51.61
2024-02-26T05:17:51.476Z,52.34
2024-02-26T05:18:51.543Z,52.74
2024-02-26T05:19:51.600Z,52.55
2024-02-26T05:20:51.621Z,52.76
2024-02-26T05:21:51.786Z,52.49
2024-02-26T05:22:51.688Z,52.12
2024-02-26T05:23:51.787Z,51.62
2024-02-26T05:24:51.806Z,51.92
2024-02-26T05:25:51.908Z,51.87
2024-02-26T05:26:52.004Z,51.85
2024-02-26T05:27:51.995Z,51.85
2024-02-26T05:28:52.070Z,51.62
2024-02-26T05:29:52.124Z,51.84
2024-02-26T05:30:52.144Z,51.94
2024-02-26T05:31:52.197Z,52.06
2024-02-26T05:32:52.284Z,51.42
2024-02-26T05:33:52.375Z,52.25
2024-02-26T05:34:52.387Z,53.12
2024-02-26T05:35:52.478Z,51.88
2024-02-26T05:36:52.489Z,51.37
2024-02-26T05:37:52.542Z,53.01
2024-02-26T05:38:52.666Z,53.13
2024-02-26T05:39:52.619Z,52.09
2024-02-26T05:40:52.677Z,51.91
2024-02-26T05:41:52.784Z,51.68
2024-02-26T05:42:52.786Z,52.70
2024-02-26T05:43:52.848Z,52.79
2024-02-26T05:44:52.926Z,52.83
2024-02-26T05:45:53.002Z,52.96
2024-02-26T05:46:52.991Z,52.77
2024-02-26T05:47:53.108Z,53.02
2024-02-26T05:48:53.225Z,52.46
2024-02-26T05:49:53.207Z,52.96
2024-02-26T05:50:53.243Z,53.35
2024-02-26T05:51:53.263Z,52.24
2024-02-26T05:52:53.301Z,52.85
2024-02-26T05:53:53.383Z,51.30
2024-02-26T05:54:53.404Z,52.00
2024-02-26T05:55:53.457Z,51.90
2024-02-26T05:56:53.526Z,52.62
2024-02-26T05:57:53.577Z,52.48
2024-02-26T05:58:53.605Z,52.76
2024-02-26T05:59:53.691Z,52.61
2024-02-26T06:00:53.761Z,52.82
2024-02-26T06:01:53.766Z,52.09
2024-02-26T06:02:53.829Z,51.96
2024-02-26T06:03:53.905Z,52.34
2024-02-26T06:04:53.920Z,52.70
2024-02-26T06:05:54.014Z,52.51
2024-02-26T06:06:54.031Z,52.40
2024-02-26T06:07:54.023Z,52.54
2024-02-26T06:08:54.074Z,53.52
2024-02-26T06:09:54.100Z,50.77
2024-02-26T06:10:54.184Z,51.01
2024-02-26T06:11:54.238Z,52.42
2024-02-26T06:12:54.275Z,53.21
2024-02-26T06:13:54.289Z,52.43
2024-02-26T06:14:54.334Z,51.94
2024-02-26T06:15:54.380Z,53.10
2024-02-26T06:16:54.407Z,52.74
2024-02-26T06:17:54.543Z,52.85
2024-02-26T06:18:54.609Z,51.48
2024-02-26T06:19:54.571Z,52.86
2024-02-26T06:20:54.651Z,52.95
2024-02-26T06:21:54.617Z,51.69
2024-02-26T06:22:54.656Z,53.33
2024-02-26T06:23:54.784Z,50.35
2024-02-26T06:24:54.810Z,52.18
2024-02-26T06:25:54.822Z,52.96
2024-02-26T06:26:54.896Z,52.21
2024-02-26T06:27:54.890Z,52.30
2024-02-26T06:28:54.932Z,52.52
2024-02-26T06:29:57.583Z,52.82
2024-02-26T06:30:54.997Z,53.94
2024-02-26T06:31:55.057Z,53.49
2024-02-26T06:32:55.103Z,55.13
2024-02-26T06:33:55.097Z,55.19
2024-02-26T06:34:55.136Z,53.41
2024-02-26T06:35:55.007Z,54.22
2024-02-26T06:36:54.985Z,54.41
2024-02-26T06:37:55.177Z,51.08
2024-02-26T06:38:55.049Z,54.59
2024-02-26T06:39:54.973Z,55.28
2024-02-26T06:40:55.121Z,56.92
2024-02-26T06:41:55.033Z,55.87
2024-02-26T06:42:55.021Z,59.48
2024-02-26T06:43:54.995Z,61.39
2024-02-26T06:44:55.044Z,64.44
2024-02-26T06:45:55.444Z,67.52
2024-02-26T06:46:55.000Z,74.20
2024-02-26T06:47:55.174Z,79.32
2024-02-26T06:48:55.994Z,89.53
2024-02-26T06:49:55.296Z,94.49
2024-02-26T06:50:55.121Z,102.09
2024-02-26T06:51:55.051Z,113.27
2024-02-26T06:52:55.006Z,126.32
2024-02-26T06:53:55.084Z,160.27
2024-02-26T06:54:55.947Z,163.65
2024-02-26T06:55:55.027Z,168.54
2024-02-26T06:56:55.083Z,169.47
2024-02-26T06:57:55.007Z,168.10
2024-02-26T06:58:55.016Z,171.16
2024-02-26T06:59:55.036Z,172.11
2024-02-26T07:00:55.446Z,172.86
2024-02-26T07:01:55.133Z,175.04
2024-02-26T07:02:55.145Z,176.17
2024-02-26T07:03:55.042Z,179.36
2024-02-26T07:04:55.032Z,182.55
2024-02-26T07:05:55.206Z,184.06
2024-02-26T07:06:55.152Z,190.31
2024-02-26T07:07:55.028Z,193.25
2024-02-26T07:08:55.058Z,197.26
2024-02-26T07:09:55.025Z,200.00
2024-02-26T07:10:55.066Z,200.00
2024-02-26T07:11:56.206Z,200.00
2024-02-26T07:12:55.229Z,200.00
2024-02-26T07:13:55.240Z,199.55
2024-02-26T07:14:55.273Z,200.00
2024-02-26T07:15:55.337Z,197.11
2024-02-26T07:16:55.361Z,198.55
2024-02-26T07:17:56.546Z,197.22
2024-02-26T07:18:55.821Z,198.71
2024-02-26T07:19:55.586Z,198.91
2024-02-26T07:20:55.600Z,199.44
2024-02-26T07:21:55.600Z,199.88
2024-02-26T07:22:55.640Z,198.77
2024-02-26T07:23:55.709Z,198.83
2024-02-26T07:24:55.757Z,198.53
2024-02-26T07:25:55.927Z,200.00
2024-02-26T07:26:55.824Z,199.20
2024-02-26T07:27:55.841Z,200.16
2024-02-26T07:28:55.871Z,198.99
2024-02-26T07:29:55.985Z,199.37
2024-02-26T07:30:55.939Z,199.78
2024-02-26T07:31:55.971Z,199.26
2024-02-26T07:32:56.098Z,198.62
2024-02-26T07:33:56.195Z,199.20
2024-02-26T07:34:56.117Z,199.98
2024-02-26T07:35:56.312Z,198.75
2024-02-26T07:36:56.161Z,199.19
2024-02-26T07:37:56.201Z,199.48
2024-02-26T07:38:56.288Z,199.39
2024-02-26T07:39:56.292Z,198.26
2024-02-26T07:41:02.867Z,200.00
2024-02-26T07:41:57.369Z,200.07
2024-02-26T07:42:56.399Z,200.92
2024-02-26T07:43:56.327Z,202.59
2024-02-26T07:44:56.441Z,204.22
2024-02-26T07:45:56.366Z,210.71
2024-02-26T07:46:56.333Z,202.48
2024-02-26T07:47:56.429Z,200.00
2024-02-26T07:48:56.516Z,200.00
2024-02-26T07:49:56.380Z,200.00
2024-02-26T07:50:56.515Z,198.06
2024-02-26T07:51:56.333Z,197.04
2024-02-26T07:52:56.371Z,196.85
2024-02-26T07:53:56.432Z,194.95
2024-02-26T07:54:56.389Z,195.84
2024-02-26T07:55:56.337Z,195.06
2024-02-26T07:56:56.362Z,194.63
2024-02-26T07:57:56.349Z,193.63
2024-02-26T07:58:56.352Z,193.97
2024-02-26T07:59:56.432Z,193.36
2024-02-26T08:00:56.469Z,195.33
2024-02-26T08:01:58.895Z,194.95
2024-02-26T08:02:56.465Z,197.06
2024-02-26T08:03:56.489Z,197.04
2024-02-26T08:04:56.376Z,196.95
2024-02-26T08:05:56.553Z,198.13
2024-02-26T08:06:56.411Z,197.96
2024-02-26T08:07:56.357Z,198.07
2024-02-26T08:08:56.425Z,199.60
2024-02-26T08:09:56.492Z,199.31
2024-02-26T08:10:56.397Z,199.96
2024-02-26T08:11:56.388Z,199.48
2024-02-26T08:12:56.363Z,198.99
2024-02-26T08:13:56.404Z,198.73
2024-02-26T08:14:56.975Z,198.64
2024-02-26T08:15:56.391Z,197.74
2024-02-26T08:16:56.383Z,199.23
2024-02-26T08:17:56.530Z,199.60
2024-02-26T08:18:56.511Z,198.68
2024-02-26T08:19:56.448Z,198.12
2024-02-26T08:20:56.471Z,198.40
2024-02-26T08:21:56.378Z,198.83
2024-02-26T08:22:56.382Z,198.92
2024-02-26T08:23:56.416Z,199.93
2024-02-26T08:24:56.389Z,199.70
2024-02-26T08:25:56.384Z,200.00
2024-02-26T08:26:56.402Z,199.30
2024-02-26T08:27:56.385Z,200.00
2024-02-26T08:28:57.015Z,199.12
2024-02-26T08:29:56.408Z,199.54
2024-02-26T08:30:56.448Z,199.84
2024-02-26T08:31:56.404Z,199.78
2024-02-26T08:32:56.450Z,200.02
2024-02-26T08:33:56.703Z,198.94
2024-02-26T08:34:56.480Z,197.26
2024-02-26T08:35:56.434Z,193.09
2024-02-26T08:36:56.438Z,191.15
2024-02-26T08:37:56.437Z,197.84
2024-02-26T08:38:56.434Z,200.28
2024-02-26T08:39:56.450Z,200.05
2024-02-26T08:40:56.461Z,196.85
2024-02-26T08:41:56.496Z,196.69
2024-02-26T08:42:56.434Z,199.96
2024-02-26T08:43:56.422Z,199.27
2024-02-26T08:44:56.512Z,195.59
2024-02-26T08:45:56.486Z,192.98
2024-02-26T08:46:56.442Z,189.37
2024-02-26T08:47:56.626Z,185.43
2024-02-26T08:48:56.629Z,181.56
2024-02-26T08:49:56.473Z,178.67
2024-02-26T08:50:56.480Z,177.38
2024-02-26T08:51:56.449Z,177.04
2024-02-26T08:52:56.438Z,172.96
2024-02-26T08:53:56.464Z,171.43
2024-02-26T08:54:56.459Z,170.07
2024-02-26T08:55:56.947Z,168.52
2024-02-26T08:56:56.544Z,167.54
2024-02-26T08:57:56.498Z,170.92
2024-02-26T08:58:56.442Z,188.02
2024-02-26T08:59:56.505Z,213.83
2024-02-26T09:00:56.466Z,225.58
2024-02-26T09:01:56.443Z,228.09
2024-02-26T09:02:56.496Z,226.01
2024-02-26T09:03:56.525Z,220.40
2024-02-26T09:04:56.460Z,215.66
2024-02-26T09:05:57.027Z,210.43
2024-02-26T09:06:56.951Z,203.66
2024-02-26T09:07:56.466Z,200.03
2024-02-26T09:08:59.596Z,199.24
2024-02-26T09:09:56.481Z,199.26
2024-02-26T09:10:56.560Z,199.32
2024-02-26T09:11:56.601Z,199.52
2024-02-26T09:12:56.618Z,199.92
2024-02-26T09:13:56.498Z,200.37
2024-02-26T09:14:56.479Z,199.62
2024-02-26T09:15:56.947Z,200.00
2024-02-26T09:16:56.492Z,199.53
2024-02-26T09:17:56.624Z,199.70
2024-02-26T09:18:56.733Z,199.09
2024-02-26T09:19:56.852Z,199.86
2024-02-26T09:20:57.017Z,199.27
2024-02-26T09:21:56.964Z,199.46
2024-02-26T09:22:56.916Z,198.85
2024-02-26T09:23:57.107Z,197.37
2024-02-26T09:24:56.992Z,196.31
2024-02-26T09:25:57.016Z,189.39
2024-02-26T09:26:57.526Z,178.92
2024-02-26T09:27:57.098Z,167.84
2024-02-26T09:28:57.130Z,152.10
2024-02-26T09:29:57.192Z,142.17
2024-02-26T09:30:57.460Z,130.41
2024-02-26T09:31:57.234Z,122.05
2024-02-26T09:32:57.341Z,113.85
2024-02-26T09:34:01.173Z,106.13
2024-02-26T09:34:58.325Z,100.10
2024-02-26T09:35:57.354Z,94.76
2024-02-26T09:37:04.845Z,90.14
2024-02-26T09:37:58.362Z,88.01
2024-02-26T09:39:01.361Z,84.56
2024-02-26T09:39:57.436Z,82.47
2024-02-26T09:40:57.493Z,81.17
2024-02-26T09:41:57.410Z,79.15
2024-02-26T09:42:57.326Z,78.94
2024-02-26T09:43:57.409Z,77.65
2024-02-26T09:44:57.341Z,78.32
2024-02-26T09:45:57.370Z,84.40
2024-02-26T09:46:57.480Z,87.39
2024-02-26T09:47:57.704Z,88.50
2024-02-26T09:48:57.532Z,88.68
2024-02-26T09:49:57.416Z,88.47
2024-02-26T09:50:57.416Z,88.40
2024-02-26T09:51:57.474Z,86.29
2024-02-26T09:52:57.389Z,86.85
2024-02-26T09:53:57.407Z,86.24
2024-02-26T09:54:57.352Z,87.74
2024-02-26T09:55:57.443Z,88.36
2024-02-26T09:57:03.958Z,88.90
2024-02-26T09:57:58.536Z,88.93
2024-02-26T09:58:57.443Z,89.07
2024-02-26T09:59:57.401Z,89.99
2024-02-26T10:00:57.415Z,91.31
2024-02-26T10:01:57.378Z,93.23
2024-02-26T10:02:57.436Z,93.94
2024-02-26T10:03:57.460Z,95.93
2024-02-26T10:04:57.514Z,96.80
2024-02-26T10:05:57.504Z,97.42
2024-02-26T10:06:57.466Z,97.88
2024-02-26T10:07:57.393Z,99.75
2024-02-26T10:08:57.497Z,99.95
2024-02-26T10:09:57.403Z,101.20
2024-02-26T10:10:57.399Z,102.22
2024-02-26T10:11:57.541Z,103.54
2024-02-26T10:12:57.535Z,105.17
2024-02-26T10:13:57.382Z,106.15
2024-02-26T10:14:57.429Z,106.91
2024-02-26T10:15:57.386Z,107.93
2024-02-26T10:16:57.544Z,108.91
2024-02-26T10:17:57.650Z,109.64
2024-02-26T10:18:59.734Z,111.14
2024-02-26T10:19:57.625Z,111.44
2024-02-26T10:20:57.480Z,112.39
2024-02-26T10:21:57.577Z,113.99
2024-02-26T10:22:57.481Z,113.48
2024-02-26T10:23:57.569Z,115.05
2024-02-26T10:24:57.484Z,114.68
2024-02-26T10:25:57.493Z,116.12
2024-02-26T10:26:57.537Z,117.34
2024-02-26T10:27:57.579Z,116.74
2024-02-26T10:28:57.490Z,118.27
2024-02-26T10:29:57.498Z,118.73
2024-02-26T10:30:57.513Z,120.17
2024-02-26T10:31:58.029Z,120.21
2024-02-26T10:32:57.623Z,121.89
2024-02-26T10:33:58.009Z,125.38
2024-02-26T10:34:57.664Z,130.64
2024-02-26T10:35:57.528Z,138.24
2024-02-26T10:36:58.610Z,147.93
2024-02-26T10:37:57.512Z,162.32
2024-02-26T10:38:57.542Z,174.09
2024-02-26T10:39:57.572Z,180.11
2024-02-26T10:40:57.555Z,181.75
2024-02-26T10:41:58.044Z,183.58
2024-02-26T10:42:57.599Z,184.21
2024-02-26T10:43:57.604Z,183.24
2024-02-26T10:44:57.643Z,183.05
2024-02-26T10:45:57.575Z,185.02
2024-02-26T10:46:57.988Z,185.04
2024-02-26T10:47:57.732Z,183.90
2024-02-26T10:48:57.686Z,182.41
2024-02-26T10:49:57.645Z,181.21
2024-02-26T10:50:57.568Z,178.62
2024-02-26T10:51:57.667Z,176.82
2024-02-26T10:52:57.566Z,173.86
2024-02-26T10:54:01.436Z,172.50
2024-02-26T10:55:00.537Z,172.04
2024-02-26T10:55:57.573Z,169.26
2024-02-26T10:56:57.645Z,166.22
2024-02-26T10:57:57.554Z,164.35
2024-02-26T10:58:57.541Z,161.96
2024-02-26T10:59:57.822Z,159.98
2024-02-26T11:00:57.619Z,158.73
2024-02-26T11:01:57.551Z,156.63
2024-02-26T11:02:57.605Z,154.38
2024-02-26T11:03:57.675Z,155.01
2024-02-26T11:04:57.642Z,154.53
2024-02-26T11:05:57.648Z,153.76
2024-02-26T11:06:57.760Z,152.23
2024-02-26T11:07:57.554Z,151.94
2024-02-26T11:08:57.582Z,148.82
2024-02-26T11:09:57.550Z,147.25
2024-02-26T11:10:57.645Z,145.02
2024-02-26T11:11:57.637Z,144.38
2024-02-26T11:12:57.579Z,141.48
2024-02-26T11:13:57.566Z,141.07
2024-02-26T11:14:57.586Z,139.53
2024-02-26T11:15:57.689Z,138.44
2024-02-26T11:16:57.573Z,136.73
2024-02-26T11:17:57.659Z,132.26
2024-02-26T11:18:57.743Z,132.18
2024-02-26T11:19:57.574Z,131.47
2024-02-26T11:20:57.619Z,128.96
2024-02-26T11:21:59.050Z,126.53
2024-02-26T11:22:57.588Z,126.04
2024-02-26T11:23:57.617Z,124.46
2024-02-26T11:24:57.579Z,123.47
2024-02-26T11:25:57.582Z,122.84
2024-02-26T11:26:57.595Z,121.43
2024-02-26T11:27:57.580Z,121.71
2024-02-26T11:28:57.579Z,119.96
2024-02-26T11:29:57.614Z,120.49
2024-02-26T11:30:57.584Z,119.00
2024-02-26T11:31:58.121Z,118.17
2024-02-26T11:32:57.709Z,115.92
2024-02-26T11:33:57.816Z,114.70
2024-02-26T11:34:57.681Z,113.84
2024-02-26T11:35:57.651Z,112.34
2024-02-26T11:36:58.012Z,110.26
2024-02-26T11:37:57.804Z,108.98
2024-02-26T11:38:57.610Z,107.31
2024-02-26T11:39:57.595Z,106.12
2024-02-26T11:40:57.589Z,104.34
2024-02-26T11:41:58.066Z,102.02
2024-02-26T11:42:57.600Z,100.46
2024-02-26T11:43:57.610Z,99.19
2024-02-26T11:44:57.603Z,97.12
2024-02-26T11:45:57.604Z,94.81
2024-02-26T11:46:58.054Z,93.74
2024-02-26T11:47:57.960Z,92.42
2024-02-26T11:48:57.696Z,91.97
2024-02-26T11:49:57.644Z,91.94
2024-02-26T11:50:57.680Z,92.11
2024-02-26T11:51:57.608Z,92.59
2024-02-26T11:52:57.659Z,91.24
2024-02-26T11:53:57.636Z,93.30
2024-02-26T11:54:57.610Z,92.57
2024-02-26T11:55:57.623Z,90.38
2024-02-26T11:56:57.672Z,89.01
2024-02-26T11:57:57.645Z,87.84
2024-02-26T11:58:57.630Z,87.40
2024-02-26T11:59:57.630Z,86.55
2024-02-26T12:00:57.641Z,83.99
2024-02-26T12:02:00.151Z,83.72
2024-02-26T12:02:57.665Z,83.74
2024-02-26T12:03:57.750Z,83.73
2024-02-26T12:04:57.677Z,83.82
2024-02-26T12:05:57.702Z,83.96
2024-02-26T12:06:57.857Z,105.50
2024-02-26T12:07:57.638Z,144.80
2024-02-26T12:08:57.694Z,169.76
2024-02-26T12:09:57.639Z,173.70
2024-02-26T12:10:57.650Z,176.83
2024-02-26T12:11:57.730Z,174.17
2024-02-26T12:12:57.712Z,202.04
2024-02-26T12:13:57.653Z,210.88
2024-02-26T12:14:57.787Z,199.00
2024-02-26T12:15:57.704Z,192.43
2024-02-26T12:16:57.638Z,186.46
2024-02-26T12:17:57.705Z,181.43
2024-02-26T12:18:57.726Z,178.08
2024-02-26T12:19:57.787Z,177.17
2024-02-26T12:20:57.805Z,174.57
2024-02-26T12:21:58.055Z,173.28
2024-02-26T12:22:57.675Z,170.92
2024-02-26T12:23:57.690Z,168.70
2024-02-26T12:24:57.741Z,168.99
2024-02-26T12:25:57.666Z,168.39
2024-02-26T12:26:58.139Z,166.81
2024-02-26T12:27:57.660Z,167.41
2024-02-26T12:28:57.675Z,166.57
2024-02-26T12:29:57.704Z,166.08
2024-02-26T12:30:57.671Z,165.00
2024-02-26T12:31:58.082Z,164.91
2024-02-26T12:32:57.753Z,164.25
2024-02-26T12:33:57.761Z,163.57
2024-02-26T12:34:58.099Z,162.28
2024-02-26T12:35:57.981Z,161.71
2024-02-26T12:36:57.677Z,161.45
2024-02-26T12:37:57.706Z,160.81
2024-02-26T12:38:57.708Z,159.66
2024-02-26T12:39:58.050Z,159.61
2024-02-26T12:40:57.680Z,159.25
2024-02-26T12:41:58.093Z,158.41
2024-02-26T12:42:57.696Z,158.32
2024-02-26T12:43:57.680Z,157.75